AVA126 SUMU-SABE
Flight info
| Callsign | AVA126 |
|---|---|
| Flight time | 0h 33m |
| Altitude | 26000 |
| Route | DAGUS DCT UGIMI UGIMI8Q |
| Aircraft | A320/M-SDE3FGHIRWY/LB1 |
Departure
| Time | 2026-04-21 22:25 |
|---|---|
| Airport | Carrasco General Cesáreo L. Berisso International Airport (SUMU) |
Arrival
| Time | 2026-04-21 22:59 |
|---|---|
| Airport | Aeroparque Jorge Newbery (SABE) |
| Time | Latitude | Longitude | Altitude | Speed | Heading |
|---|---|---|---|---|---|
| 2026-04-21 21:59 | -34.83669 | -56.01871 | 82 ft | 0 kts | 143° |
| 2026-04-21 22:17 | -34.83665 | -56.01875 | 82 ft | 4 kts | 144° |
| 2026-04-21 22:17 | -34.83643 | -56.01894 | 85 ft | 4 kts | 148° |
| 2026-04-21 22:17 | -34.83619 | -56.01910 | 87 ft | 4 kts | 158° |
| 2026-04-21 22:17 | -34.83594 | -56.01917 | 87 ft | 4 kts | 194° |
| 2026-04-21 22:18 | -34.83583 | -56.01910 | 86 ft | 0 kts | 233° |
| 2026-04-21 22:20 | -34.83584 | -56.01912 | 86 ft | 3 kts | 233° |
| 2026-04-21 22:20 | -34.83620 | -56.01972 | 85 ft | 10 kts | 233° |
| 2026-04-21 22:20 | -34.83661 | -56.02039 | 84 ft | 13 kts | 233° |
| 2026-04-21 22:20 | -34.83733 | -56.02156 | 85 ft | 15 kts | 233° |
| 2026-04-21 22:21 | -34.83805 | -56.02235 | 85 ft | 13 kts | 195° |
| 2026-04-21 22:21 | -34.83893 | -56.02244 | 84 ft | 12 kts | 182° |
| 2026-04-21 22:21 | -34.83946 | -56.02293 | 84 ft | 10 kts | 261° |
| 2026-04-21 22:21 | -34.83946 | -56.02370 | 82 ft | 9 kts | 270° |
| 2026-04-21 22:22 | -34.83946 | -56.02440 | 82 ft | 8 kts | 270° |
| 2026-04-21 22:22 | -34.83945 | -56.02583 | 82 ft | 21 kts | 270° |
| 2026-04-21 22:22 | -34.83978 | -56.02730 | 82 ft | 17 kts | 238° |
| 2026-04-21 22:22 | -34.84011 | -56.02857 | 82 ft | 16 kts | 271° |
| 2026-04-21 22:23 | -34.84010 | -56.03024 | 82 ft | 21 kts | 270° |
| 2026-04-21 22:23 | -34.84055 | -56.03179 | 82 ft | 19 kts | 240° |
| 2026-04-21 22:23 | -34.84114 | -56.03310 | 82 ft | 17 kts | 242° |
| 2026-04-21 22:23 | -34.84166 | -56.03430 | 86 ft | 15 kts | 242° |
| 2026-04-21 22:24 | -34.84213 | -56.03537 | 85 ft | 14 kts | 242° |
| 2026-04-21 22:24 | -34.84237 | -56.03638 | 82 ft | 12 kts | 283° |
| 2026-04-21 22:24 | -34.84180 | -56.03643 | 82 ft | 10 kts | 47° |
| 2026-04-21 22:24 | -34.84134 | -56.03569 | 82 ft | 13 kts | 53° |
| 2026-04-21 22:25 | -34.83977 | -56.03311 | 82 ft | 72 kts | 53° |
| 2026-04-21 22:25 | -34.83556 | -56.02618 | 82 ft | 130 kts | 53° |
| 2026-04-21 22:25 | -34.82925 | -56.01585 | 156 ft | 168 kts | 53° |
| 2026-04-21 22:25 | -34.82217 | -56.00434 | 744 ft | 172 kts | 52° |
| 2026-04-21 22:26 | -34.81496 | -55.99262 | 1401 ft | 174 kts | 50° |
| 2026-04-21 22:26 | -34.80774 | -55.98074 | 2063 ft | 177 kts | 50° |
| 2026-04-21 22:26 | -34.80002 | -55.96847 | 2497 ft | 190 kts | 44° |
| 2026-04-21 22:26 | -34.78830 | -55.96053 | 2774 ft | 204 kts | 3° |
| 2026-04-21 22:27 | -34.77430 | -55.96521 | 3076 ft | 224 kts | 321° |
| 2026-04-21 22:27 | -34.76554 | -55.98165 | 3491 ft | 248 kts | 284° |
| 2026-04-21 22:27 | -34.76619 | -56.00312 | 4224 ft | 261 kts | 261° |
| 2026-04-21 22:27 | -34.77096 | -56.02463 | 5126 ft | 265 kts | 255° |
| 2026-04-21 22:28 | -34.77693 | -56.04600 | 6002 ft | 268 kts | 253° |
| 2026-04-21 22:28 | -34.78325 | -56.06745 | 6856 ft | 270 kts | 254° |
| 2026-04-21 22:28 | -34.78931 | -56.08911 | 7703 ft | 271 kts | 255° |
| 2026-04-21 22:28 | -34.79510 | -56.11107 | 8560 ft | 273 kts | 256° |
| 2026-04-21 22:29 | -34.80074 | -56.13323 | 9392 ft | 276 kts | 256° |
| 2026-04-21 22:29 | -34.80634 | -56.15564 | 10205 ft | 278 kts | 257° |
| 2026-04-21 22:29 | -34.81206 | -56.17898 | 10515 ft | 300 kts | 257° |
| 2026-04-21 22:29 | -34.81817 | -56.20424 | 10715 ft | 323 kts | 257° |
| 2026-04-21 22:30 | -34.82473 | -56.23138 | 10860 ft | 345 kts | 257° |
| 2026-04-21 22:30 | -34.83165 | -56.25989 | 11301 ft | 355 kts | 257° |
| 2026-04-21 22:30 | -34.83877 | -56.28889 | 11938 ft | 359 kts | 256° |
| 2026-04-21 22:30 | -34.84595 | -56.31811 | 12621 ft | 362 kts | 256° |
| 2026-04-21 22:31 | -34.85319 | -56.34757 | 13303 ft | 365 kts | 257° |
| 2026-04-21 22:31 | -34.86049 | -56.37721 | 13969 ft | 367 kts | 257° |
| 2026-04-21 22:31 | -34.86782 | -56.40708 | 14575 ft | 370 kts | 257° |
| 2026-04-21 22:31 | -34.87505 | -56.43681 | 15160 ft | 372 kts | 257° |
| 2026-04-21 22:32 | -34.88240 | -56.46716 | 15752 ft | 375 kts | 257° |
| 2026-04-21 22:32 | -34.88979 | -56.49776 | 16327 ft | 378 kts | 257° |
| 2026-04-21 22:32 | -34.89724 | -56.52858 | 16925 ft | 381 kts | 257° |
| 2026-04-21 22:32 | -34.90484 | -56.56005 | 17511 ft | 384 kts | 257° |
| 2026-04-21 22:33 | -34.91233 | -56.59097 | 18063 ft | 387 kts | 257° |
| 2026-04-21 22:33 | -34.92011 | -56.62301 | 18561 ft | 391 kts | 257° |
| 2026-04-21 22:33 | -34.92772 | -56.65438 | 19036 ft | 393 kts | 257° |
| 2026-04-21 22:33 | -34.93550 | -56.68645 | 19519 ft | 396 kts | 257° |
| 2026-04-21 22:34 | -34.94328 | -56.71868 | 19990 ft | 398 kts | 257° |
| 2026-04-21 22:34 | -34.95108 | -56.75113 | 20446 ft | 400 kts | 257° |
| 2026-04-21 22:34 | -34.95887 | -56.78372 | 20899 ft | 402 kts | 257° |
| 2026-04-21 22:34 | -34.96667 | -56.81652 | 21336 ft | 404 kts | 257° |
| 2026-04-21 22:35 | -34.97452 | -56.84948 | 21772 ft | 406 kts | 257° |
| 2026-04-21 22:35 | -34.98091 | -56.88297 | 22152 ft | 406 kts | 264° |
| 2026-04-21 22:35 | -34.98281 | -56.91721 | 22540 ft | 405 kts | 272° |
| 2026-04-21 22:35 | -34.98273 | -56.95168 | 22928 ft | 407 kts | 272° |
| 2026-04-21 22:36 | -34.98244 | -57.02109 | 23663 ft | 411 kts | 272° |
| 2026-04-21 22:36 | -34.98227 | -57.05603 | 23965 ft | 413 kts | 272° |
| 2026-04-21 22:36 | -34.98212 | -57.09117 | 24263 ft | 415 kts | 272° |
| 2026-04-21 22:37 | -34.98197 | -57.12642 | 24596 ft | 415 kts | 272° |
| 2026-04-21 22:37 | -34.98183 | -57.16160 | 24979 ft | 414 kts | 272° |
| 2026-04-21 22:37 | -34.98167 | -57.19675 | 25288 ft | 415 kts | 272° |
| 2026-04-21 22:37 | -34.98148 | -57.23198 | 25567 ft | 417 kts | 272° |
| 2026-04-21 22:38 | -34.98128 | -57.26740 | 25834 ft | 418 kts | 272° |
| 2026-04-21 22:38 | -34.98106 | -57.30285 | 25964 ft | 419 kts | 272° |
| 2026-04-21 22:38 | -34.98083 | -57.33861 | 25997 ft | 423 kts | 272° |
| 2026-04-21 22:38 | -34.98060 | -57.37457 | 25994 ft | 425 kts | 272° |
| 2026-04-21 22:39 | -34.98037 | -57.41059 | 25992 ft | 425 kts | 272° |
| 2026-04-21 22:39 | -34.98010 | -57.44668 | 25990 ft | 426 kts | 272° |
| 2026-04-21 22:39 | -34.97979 | -57.48277 | 25989 ft | 426 kts | 272° |
| 2026-04-21 22:39 | -34.97950 | -57.51883 | 25985 ft | 426 kts | 272° |
| 2026-04-21 22:40 | -34.97921 | -57.55493 | 25985 ft | 426 kts | 272° |
| 2026-04-21 22:40 | -34.97891 | -57.59102 | 25985 ft | 426 kts | 272° |
| 2026-04-21 22:40 | -34.97862 | -57.62708 | 25982 ft | 426 kts | 272° |
| 2026-04-21 22:40 | -34.97830 | -57.66320 | 26001 ft | 426 kts | 272° |
| 2026-04-21 22:41 | -34.97796 | -57.69932 | 25984 ft | 427 kts | 272° |
| 2026-04-21 22:41 | -34.97761 | -57.73551 | 25972 ft | 427 kts | 272° |
| 2026-04-21 22:41 | -34.97726 | -57.77171 | 25967 ft | 427 kts | 272° |
| 2026-04-21 22:41 | -34.97690 | -57.80791 | 25964 ft | 428 kts | 272° |
| 2026-04-21 22:42 | -34.97649 | -57.84422 | 25960 ft | 427 kts | 272° |
| 2026-04-21 22:42 | -34.97583 | -57.88036 | 25970 ft | 426 kts | 275° |
| 2026-04-21 22:42 | -34.97154 | -57.91593 | 25970 ft | 424 kts | 283° |
| 2026-04-21 22:42 | -34.96359 | -57.95056 | 25983 ft | 424 kts | 286° |
| 2026-04-21 22:43 | -34.95539 | -57.98504 | 25974 ft | 424 kts | 286° |
| 2026-04-21 22:43 | -34.94723 | -58.01951 | 25972 ft | 424 kts | 286° |
| 2026-04-21 22:43 | -34.93906 | -58.05403 | 25971 ft | 424 kts | 286° |
| 2026-04-21 22:43 | -34.93039 | -58.08841 | 25621 ft | 424 kts | 291° |
| 2026-04-21 22:44 | -34.91683 | -58.12010 | 24655 ft | 422 kts | 300° |
| 2026-04-21 22:44 | -34.90122 | -58.15059 | 23517 ft | 426 kts | 301° |
| 2026-04-21 22:44 | -34.88520 | -58.18111 | 22330 ft | 427 kts | 301° |
| 2026-04-21 22:44 | -34.86918 | -58.21125 | 21512 ft | 421 kts | 301° |
| 2026-04-21 22:45 | -34.85337 | -58.24096 | 20727 ft | 415 kts | 301° |
| 2026-04-21 22:45 | -34.83781 | -58.27030 | 19962 ft | 410 kts | 301° |
| 2026-04-21 22:45 | -34.82247 | -58.29936 | 19229 ft | 406 kts | 301° |
| 2026-04-21 22:45 | -34.80735 | -58.32807 | 18523 ft | 401 kts | 301° |
| 2026-04-21 22:46 | -34.79248 | -58.35635 | 17481 ft | 392 kts | 301° |
| 2026-04-21 22:46 | -34.77793 | -58.38406 | 16234 ft | 386 kts | 302° |
| 2026-04-21 22:46 | -34.76360 | -58.41135 | 15074 ft | 380 kts | 302° |
| 2026-04-21 22:46 | -34.74948 | -58.43823 | 13969 ft | 374 kts | 302° |
| 2026-04-21 22:47 | -34.73555 | -58.46471 | 12792 ft | 369 kts | 302° |
| 2026-04-21 22:47 | -34.72182 | -58.49078 | 11606 ft | 364 kts | 302° |
| 2026-04-21 22:47 | -34.70828 | -58.51648 | 10506 ft | 359 kts | 301° |
| 2026-04-21 22:47 | -34.69491 | -58.54179 | 9903 ft | 344 kts | 301° |
| 2026-04-21 22:48 | -34.68252 | -58.56513 | 9766 ft | 314 kts | 301° |
| 2026-04-21 22:48 | -34.67118 | -58.58648 | 9644 ft | 288 kts | 301° |
| 2026-04-21 22:48 | -34.66073 | -58.60614 | 9499 ft | 269 kts | 301° |
| 2026-04-21 22:48 | -34.65068 | -58.62506 | 9381 ft | 265 kts | 301° |
| 2026-04-21 22:49 | -34.64071 | -58.64391 | 9251 ft | 264 kts | 301° |
| 2026-04-21 22:49 | -34.63079 | -58.66264 | 9123 ft | 264 kts | 301° |
| 2026-04-21 22:49 | -34.62088 | -58.68135 | 8994 ft | 263 kts | 301° |
| 2026-04-21 22:49 | -34.61094 | -58.70002 | 8756 ft | 263 kts | 301° |
| 2026-04-21 22:50 | -34.60105 | -58.71860 | 8504 ft | 261 kts | 301° |
| 2026-04-21 22:50 | -34.59121 | -58.73710 | 8254 ft | 261 kts | 302° |
| 2026-04-21 22:50 | -34.58091 | -58.75514 | 8002 ft | 260 kts | 309° |
| 2026-04-21 22:50 | -34.56756 | -58.76996 | 7756 ft | 262 kts | 323° |
| 2026-04-21 22:51 | -34.55135 | -58.78029 | 7511 ft | 266 kts | 337° |
| 2026-04-21 22:51 | -34.53324 | -58.78536 | 7268 ft | 270 kts | 351° |
| 2026-04-21 22:51 | -34.51439 | -58.78488 | 7028 ft | 273 kts | 1° |
| 2026-04-21 22:51 | -34.49553 | -58.78260 | 6791 ft | 271 kts | 1° |
| 2026-04-21 22:52 | -34.47690 | -58.77918 | 6487 ft | 273 kts | 13° |
| 2026-04-21 22:52 | -34.46021 | -58.76804 | 5783 ft | 280 kts | 39° |
| 2026-04-21 22:52 | -34.44898 | -58.74876 | 5096 ft | 285 kts | 66° |
| 2026-04-21 22:52 | -34.44503 | -58.72529 | 4414 ft | 286 kts | 82° |
| 2026-04-21 22:53 | -34.44290 | -58.70137 | 3734 ft | 284 kts | 82° |
| 2026-04-21 22:53 | -34.44088 | -58.67835 | 3476 ft | 265 kts | 82° |
| 2026-04-21 22:53 | -34.43900 | -58.65711 | 3353 ft | 244 kts | 82° |
| 2026-04-21 22:53 | -34.43830 | -58.63731 | 3242 ft | 227 kts | 100° |
| 2026-04-21 22:54 | -34.44437 | -58.62086 | 3211 ft | 203 kts | 125° |
| 2026-04-21 22:54 | -34.45192 | -58.60748 | 3100 ft | 180 kts | 125° |
| 2026-04-21 22:54 | -34.45872 | -58.59536 | 3029 ft | 169 kts | 125° |
| 2026-04-21 22:54 | -34.46520 | -58.58381 | 2973 ft | 165 kts | 125° |
| 2026-04-21 22:55 | -34.47160 | -58.57239 | 2822 ft | 163 kts | 125° |
| 2026-04-21 22:55 | -34.47795 | -58.56108 | 2639 ft | 161 kts | 126° |
| 2026-04-21 22:55 | -34.48412 | -58.55007 | 2435 ft | 160 kts | 126° |
| 2026-04-21 22:55 | -34.49034 | -58.53897 | 2224 ft | 159 kts | 127° |
| 2026-04-21 22:56 | -34.49649 | -58.52799 | 2016 ft | 156 kts | 127° |
| 2026-04-21 22:56 | -34.50258 | -58.51712 | 1815 ft | 155 kts | 129° |
| 2026-04-21 22:56 | -34.50861 | -58.50634 | 1606 ft | 154 kts | 128° |
| 2026-04-21 22:56 | -34.51457 | -58.49569 | 1392 ft | 153 kts | 129° |
| 2026-04-21 22:57 | -34.52050 | -58.48504 | 1191 ft | 151 kts | 126° |
| 2026-04-21 22:57 | -34.52644 | -58.47445 | 981 ft | 153 kts | 127° |
| 2026-04-21 22:57 | -34.53044 | -58.46728 | 854 ft | 154 kts | 128° |
| 2026-04-21 22:57 | -34.53825 | -58.45330 | 630 ft | 149 kts | 126° |
| 2026-04-21 22:58 | -34.54219 | -58.44625 | 458 ft | 149 kts | 127° |
| 2026-04-21 22:58 | -34.54798 | -58.43588 | 284 ft | 149 kts | 125° |
| 2026-04-21 22:58 | -34.55369 | -58.42559 | 68 ft | 147 kts | 124° |
| 2026-04-21 22:58 | -34.55910 | -58.41597 | 21 ft | 121 kts | 123° |
| 2026-04-21 22:59 | -34.56166 | -58.41136 | 24 ft | 24 kts | 123° |
| 2026-04-21 22:59 | -34.56170 | -58.41012 | 24 ft | 15 kts | 60° |
| 2026-04-21 22:59 | -34.56149 | -58.40974 | 23 ft | 0 kts | 51° |
| 2026-04-21 23:00 | -34.56137 | -58.40971 | 23 ft | 8 kts | 9° |
| 2026-04-21 23:01 | -34.56090 | -58.41025 | 26 ft | 10 kts | 307° |
| 2026-04-21 23:01 | -34.56050 | -58.41088 | 23 ft | 9 kts | 307° |
| 2026-04-21 23:01 | -34.56010 | -58.41152 | 24 ft | 9 kts | 307° |
| 2026-04-21 23:01 | -34.55958 | -58.41235 | 25 ft | 15 kts | 307° |
| 2026-04-21 23:02 | -34.55883 | -58.41292 | 23 ft | 14 kts | 22° |
| 2026-04-21 23:02 | -34.55819 | -58.41262 | 23 ft | 6 kts | 35° |
| 2026-04-21 23:02 | -34.55806 | -58.41251 | 23 ft | 0 kts | 32° |